sensor_id;sensor_type;location;lat;lon;timestamp;temperature;humidity
20246;DHT22;10281;54.406;18.556;2022-11-20T00:00:51;0.30;99.90
20246;DHT22;10281;54.406;18.556;2022-11-20T00:03:18;0.30;99.90
20246;DHT22;10281;54.406;18.556;2022-11-20T00:05:45;0.30;99.90
20246;DHT22;10281;54.406;18.556;2022-11-20T00:08:12;0.20;99.90
20246;DHT22;10281;54.406;18.556;2022-11-20T00:10:40;0.20;99.90
20246;DHT22;10281;54.406;18.556;2022-11-20T00:13:07;0.10;99.90
20246;DHT22;10281;54.406;18.556;2022-11-20T00:15:33;0.20;99.90
20246;DHT22;10281;54.406;18.556;2022-11-20T00:18:00;0.20;99.90
20246;DHT22;10281;54.406;18.556;2022-11-20T00:20:27;0.20;99.90
20246;DHT22;10281;54.406;18.556;2022-11-20T00:22:53;0.20;99.90
20246;DHT22;10281;54.406;18.556;2022-11-20T00:25:20;0.20;99.90
20246;DHT22;10281;54.406;18.556;2022-11-20T00:27:46;0.20;99.90
20246;DHT22;10281;54.406;18.556;2022-11-20T00:30:13;0.20;99.90
20246;DHT22;10281;54.406;18.556;2022-11-20T00:32:40;0.20;99.90
20246;DHT22;10281;54.406;18.556;2022-11-20T00:35:06;0.20;99.90
20246;DHT22;10281;54.406;18.556;2022-11-20T00:37:33;0.20;99.90
20246;DHT22;10281;54.406;18.556;2022-11-20T00:40:00;0.10;99.90
20246;DHT22;10281;54.406;18.556;2022-11-20T00:42:26;0.10;99.90
20246;DHT22;10281;54.406;18.556;2022-11-20T00:44:53;0.20;99.90
20246;DHT22;10281;54.406;18.556;2022-11-20T00:47:19;0.20;99.90
20246;DHT22;10281;54.406;18.556;2022-11-20T00:49:46;0.20;99.90
20246;DHT22;10281;54.406;18.556;2022-11-20T00:52:13;0.20;99.90
20246;DHT22;10281;54.406;18.556;2022-11-20T00:54:40;0.20;99.90
20246;DHT22;10281;54.406;18.556;2022-11-20T00:57:06;0.20;99.90
20246;DHT22;10281;54.406;18.556;2022-11-20T00:59:33;0.30;99.90
20246;DHT22;10281;54.406;18.556;2022-11-20T01:02:00;0.20;99.90
20246;DHT22;10281;54.406;18.556;2022-11-20T01:04:26;0.30;99.90
20246;DHT22;10281;54.406;18.556;2022-11-20T01:06:53;0.30;99.90
20246;DHT22;10281;54.406;18.556;2022-11-20T01:09:20;0.20;99.90
20246;DHT22;10281;54.406;18.556;2022-11-20T01:11:47;0.20;99.90
20246;DHT22;10281;54.406;18.556;2022-11-20T01:14:16;0.20;99.90
20246;DHT22;10281;54.406;18.556;2022-11-20T01:16:45;0.10;99.90
20246;DHT22;10281;54.406;18.556;2022-11-20T01:19:15;0.20;99.90
20246;DHT22;10281;54.406;18.556;2022-11-20T01:21:43;0.20;99.90
20246;DHT22;10281;54.406;18.556;2022-11-20T01:24:12;0.20;99.90
20246;DHT22;10281;54.406;18.556;2022-11-20T01:26:40;0.20;99.90
20246;DHT22;10281;54.406;18.556;2022-11-20T01:29:14;0.10;99.90
20246;DHT22;10281;54.406;18.556;2022-11-20T01:31:41;0.10;99.90
20246;DHT22;10281;54.406;18.556;2022-11-20T01:34:13;0.10;99.90
20246;DHT22;10281;54.406;18.556;2022-11-20T01:36:41;0.10;99.90
20246;DHT22;10281;54.406;18.556;2022-11-20T01:39:13;0.10;99.90
20246;DHT22;10281;54.406;18.556;2022-11-20T01:41:41;0.10;99.90
20246;DHT22;10281;54.406;18.556;2022-11-20T01:44:14;0.10;99.90
20246;DHT22;10281;54.406;18.556;2022-11-20T01:49:22;0.10;99.90
20246;DHT22;10281;54.406;18.556;2022-11-20T01:51:52;0.10;99.90
20246;DHT22;10281;54.406;18.556;2022-11-20T01:54:23;0.10;99.90
20246;DHT22;10281;54.406;18.556;2022-11-20T01:56:51;0.10;99.90
20246;DHT22;10281;54.406;18.556;2022-11-20T01:59:19;0.10;99.90
20246;DHT22;10281;54.406;18.556;2022-11-20T02:01:46;0.10;99.90
20246;DHT22;10281;54.406;18.556;2022-11-20T02:04:13;0.10;99.90
20246;DHT22;10281;54.406;18.556;2022-11-20T02:06:44;0.10;99.90
20246;DHT22;10281;54.406;18.556;2022-11-20T02:09:11;0.10;99.90
20246;DHT22;10281;54.406;18.556;2022-11-20T02:11:37;0.10;99.90
20246;DHT22;10281;54.406;18.556;2022-11-20T02:14:04;0.10;99.90
20246;DHT22;10281;54.406;18.556;2022-11-20T02:16:34;0.20;99.90
20246;DHT22;10281;54.406;18.556;2022-11-20T02:19:02;0.20;99.90
20246;DHT22;10281;54.406;18.556;2022-11-20T02:21:43;0.20;99.90
20246;DHT22;10281;54.406;18.556;2022-11-20T02:24:14;0.20;99.90
20246;DHT22;10281;54.406;18.556;2022-11-20T02:26:48;0.20;99.90
20246;DHT22;10281;54.406;18.556;2022-11-20T02:29:16;0.20;99.90
20246;DHT22;10281;54.406;18.556;2022-11-20T02:31:45;0.20;99.90
20246;DHT22;10281;54.406;18.556;2022-11-20T02:34:11;0.20;99.90
20246;DHT22;10281;54.406;18.556;2022-11-20T02:36:40;0.20;99.90
20246;DHT22;10281;54.406;18.556;2022-11-20T02:39:09;0.20;99.90
20246;DHT22;10281;54.406;18.556;2022-11-20T02:41:38;0.20;99.90
20246;DHT22;10281;54.406;18.556;2022-11-20T02:44:05;0.30;99.90
20246;DHT22;10281;54.406;18.556;2022-11-20T02:46:32;0.30;99.90
20246;DHT22;10281;54.406;18.556;2022-11-20T02:49:00;0.20;99.90
20246;DHT22;10281;54.406;18.556;2022-11-20T02:51:26;0.20;99.90
20246;DHT22;10281;54.406;18.556;2022-11-20T02:53:53;0.20;99.90
20246;DHT22;10281;54.406;18.556;2022-11-20T02:56:20;0.20;99.90
20246;DHT22;10281;54.406;18.556;2022-11-20T02:58:46;0.20;99.90
20246;DHT22;10281;54.406;18.556;2022-11-20T03:01:13;0.10;99.90
20246;DHT22;10281;54.406;18.556;2022-11-20T03:03:40;0.20;99.90
20246;DHT22;10281;54.406;18.556;2022-11-20T03:06:06;0.20;99.90
20246;DHT22;10281;54.406;18.556;2022-11-20T03:08:33;0.20;99.90
20246;DHT22;10281;54.406;18.556;2022-11-20T03:11:05;0.20;99.90
20246;DHT22;10281;54.406;18.556;2022-11-20T03:13:32;0.20;99.90
20246;DHT22;10281;54.406;18.556;2022-11-20T03:18:33;0.10;99.90
20246;DHT22;10281;54.406;18.556;2022-11-20T03:21:00;0.10;99.90
20246;DHT22;10281;54.406;18.556;2022-11-20T03:23:29;0.10;99.90
20246;DHT22;10281;54.406;18.556;2022-11-20T03:28:31;0.10;99.90
20246;DHT22;10281;54.406;18.556;2022-11-20T03:30:57;0.10;99.90
20246;DHT22;10281;54.406;18.556;2022-11-20T03:33:27;0.10;99.90
20246;DHT22;10281;54.406;18.556;2022-11-20T03:35:54;0.00;99.90
20246;DHT22;10281;54.406;18.556;2022-11-20T03:38:20;0.00;99.90
20246;DHT22;10281;54.406;18.556;2022-11-20T03:40:47;0.00;99.90
20246;DHT22;10281;54.406;18.556;2022-11-20T03:43:14;0.10;99.90
20246;DHT22;10281;54.406;18.556;2022-11-20T03:45:41;0.10;99.90
20246;DHT22;10281;54.406;18.556;2022-11-20T03:48:08;0.10;99.90
20246;DHT22;10281;54.406;18.556;2022-11-20T03:50:35;0.20;99.90
20246;DHT22;10281;54.406;18.556;2022-11-20T03:53:01;0.20;99.90
20246;DHT22;10281;54.406;18.556;2022-11-20T03:55:28;0.10;99.90
20246;DHT22;10281;54.406;18.556;2022-11-20T03:57:54;0.10;99.90
20246;DHT22;10281;54.406;18.556;2022-11-20T04:00:21;0.10;99.90
20246;DHT22;10281;54.406;18.556;2022-11-20T04:02:48;0.10;99.90
20246;DHT22;10281;54.406;18.556;2022-11-20T04:05:14;0.10;99.90
20246;DHT22;10281;54.406;18.556;2022-11-20T04:07:41;0.20;99.90
20246;DHT22;10281;54.406;18.556;2022-11-20T04:10:07;0.20;99.90
20246;DHT22;10281;54.406;18.556;2022-11-20T04:12:34;0.20;99.90
20246;DHT22;10281;54.406;18.556;2022-11-20T04:15:01;0.30;99.90
20246;DHT22;10281;54.406;18.556;2022-11-20T04:17:27;0.30;99.90
20246;DHT22;10281;54.406;18.556;2022-11-20T04:19:54;0.30;99.90
20246;DHT22;10281;54.406;18.556;2022-11-20T04:22:20;0.30;99.90
20246;DHT22;10281;54.406;18.556;2022-11-20T04:24:47;0.20;99.90
20246;DHT22;10281;54.406;18.556;2022-11-20T04:27:13;0.20;99.90
20246;DHT22;10281;54.406;18.556;2022-11-20T04:29:41;0.20;99.90
20246;DHT22;10281;54.406;18.556;2022-11-20T04:32:07;0.30;99.90
20246;DHT22;10281;54.406;18.556;2022-11-20T04:34:34;0.30;99.90
20246;DHT22;10281;54.406;18.556;2022-11-20T04:37:01;0.30;99.90
20246;DHT22;10281;54.406;18.556;2022-11-20T04:39:27;0.40;99.90
20246;DHT22;10281;54.406;18.556;2022-11-20T04:41:55;0.40;99.90
20246;DHT22;10281;54.406;18.556;2022-11-20T04:44:27;0.40;99.90
20246;DHT22;10281;54.406;18.556;2022-11-20T04:46:53;0.40;99.90
20246;DHT22;10281;54.406;18.556;2022-11-20T04:49:20;0.40;99.90
20246;DHT22;10281;54.406;18.556;2022-11-20T04:51:47;0.40;99.90
20246;DHT22;10281;54.406;18.556;2022-11-20T04:54:13;0.40;99.90
20246;DHT22;10281;54.406;18.556;2022-11-20T04:56:41;0.50;99.90
20246;DHT22;10281;54.406;18.556;2022-11-20T04:59:08;0.50;99.90
20246;DHT22;10281;54.406;18.556;2022-11-20T05:01:35;0.40;99.90
20246;DHT22;10281;54.406;18.556;2022-11-20T05:04:01;0.40;99.90
20246;DHT22;10281;54.406;18.556;2022-11-20T05:06:28;0.40;99.90
20246;DHT22;10281;54.406;18.556;2022-11-20T05:08:54;0.30;99.90
20246;DHT22;10281;54.406;18.556;2022-11-20T05:11:21;0.30;99.90
20246;DHT22;10281;54.406;18.556;2022-11-20T05:13:49;0.30;99.90
20246;DHT22;10281;54.406;18.556;2022-11-20T05:16:22;0.20;99.90
20246;DHT22;10281;54.406;18.556;2022-11-20T05:18:51;0.10;99.90
20246;DHT22;10281;54.406;18.556;2022-11-20T05:21:18;0.10;99.90
20246;DHT22;10281;54.406;18.556;2022-11-20T05:23:46;0.00;99.90
20246;DHT22;10281;54.406;18.556;2022-11-20T05:26:17;-0.10;99.90
20246;DHT22;10281;54.406;18.556;2022-11-20T05:28:44;-0.20;99.90
20246;DHT22;10281;54.406;18.556;2022-11-20T05:31:14;-0.20;99.90
20246;DHT22;10281;54.406;18.556;2022-11-20T05:33:42;-0.20;99.90
20246;DHT22;10281;54.406;18.556;2022-11-20T05:36:11;-0.30;99.90
20246;DHT22;10281;54.406;18.556;2022-11-20T05:38:38;-0.40;99.90
20246;DHT22;10281;54.406;18.556;2022-11-20T05:41:07;-0.50;99.90
20246;DHT22;10281;54.406;18.556;2022-11-20T05:43:35;-0.50;99.90
20246;DHT22;10281;54.406;18.556;2022-11-20T05:46:03;-0.60;99.90
20246;DHT22;10281;54.406;18.556;2022-11-20T05:48:31;-0.70;99.90
20246;DHT22;10281;54.406;18.556;2022-11-20T05:51:00;-0.70;99.90
20246;DHT22;10281;54.406;18.556;2022-11-20T05:53:28;-0.80;99.90
20246;DHT22;10281;54.406;18.556;2022-11-20T05:56:03;-0.80;99.90
20246;DHT22;10281;54.406;18.556;2022-11-20T05:58:31;-0.80;99.90
20246;DHT22;10281;54.406;18.556;2022-11-20T06:01:07;-0.90;99.90
20246;DHT22;10281;54.406;18.556;2022-11-20T06:03:35;-0.90;99.90
20246;DHT22;10281;54.406;18.556;2022-11-20T06:06:02;-1.00;99.90
20246;DHT22;10281;54.406;18.556;2022-11-20T06:08:29;-1.00;99.90
20246;DHT22;10281;54.406;18.556;2022-11-20T06:10:56;-1.10;99.90
20246;DHT22;10281;54.406;18.556;2022-11-20T06:13:23;-1.10;99.90
20246;DHT22;10281;54.406;18.556;2022-11-20T06:15:51;-1.20;99.90
20246;DHT22;10281;54.406;18.556;2022-11-20T06:18:18;-1.20;99.90
20246;DHT22;10281;54.406;18.556;2022-11-20T06:20:46;-1.30;99.90
20246;DHT22;10281;54.406;18.556;2022-11-20T06:23:13;-1.30;99.90
20246;DHT22;10281;54.406;18.556;2022-11-20T06:25:40;-1.30;99.90
20246;DHT22;10281;54.406;18.556;2022-11-20T06:28:07;-1.30;99.90
20246;DHT22;10281;54.406;18.556;2022-11-20T06:30:35;-1.40;99.90
20246;DHT22;10281;54.406;18.556;2022-11-20T06:33:02;-1.40;99.90
20246;DHT22;10281;54.406;18.556;2022-11-20T06:35:28;-1.40;99.90
20246;DHT22;10281;54.406;18.556;2022-11-20T06:37:55;-1.40;99.90
20246;DHT22;10281;54.406;18.556;2022-11-20T06:40:22;-1.50;99.90
20246;DHT22;10281;54.406;18.556;2022-11-20T06:42:49;-1.50;99.90
20246;DHT22;10281;54.406;18.556;2022-11-20T06:45:16;-1.50;99.90
20246;DHT22;10281;54.406;18.556;2022-11-20T06:47:43;-1.60;99.90
20246;DHT22;10281;54.406;18.556;2022-11-20T06:50:10;-1.60;99.90
20246;DHT22;10281;54.406;18.556;2022-11-20T06:52:36;-1.70;99.90
20246;DHT22;10281;54.406;18.556;2022-11-20T06:55:03;-1.80;99.90
20246;DHT22;10281;54.406;18.556;2022-11-20T06:57:30;-1.80;99.90
20246;DHT22;10281;54.406;18.556;2022-11-20T06:59:56;-1.80;99.90
20246;DHT22;10281;54.406;18.556;2022-11-20T07:02:23;-1.80;99.90
20246;DHT22;10281;54.406;18.556;2022-11-20T07:04:50;-1.80;99.90
20246;DHT22;10281;54.406;18.556;2022-11-20T07:07:16;-1.80;99.90
20246;DHT22;10281;54.406;18.556;2022-11-20T07:09:43;-1.90;99.90
20246;DHT22;10281;54.406;18.556;2022-11-20T07:12:09;-1.90;99.90
20246;DHT22;10281;54.406;18.556;2022-11-20T07:14:36;-1.90;99.90
20246;DHT22;10281;54.406;18.556;2022-11-20T07:17:03;-1.90;99.90
20246;DHT22;10281;54.406;18.556;2022-11-20T07:19:30;-1.90;99.90
20246;DHT22;10281;54.406;18.556;2022-11-20T07:21:56;-1.80;99.90
20246;DHT22;10281;54.406;18.556;2022-11-20T07:24:23;-1.80;99.90
20246;DHT22;10281;54.406;18.556;2022-11-20T07:26:50;-1.90;99.90
20246;DHT22;10281;54.406;18.556;2022-11-20T07:29:17;-2.00;99.90
20246;DHT22;10281;54.406;18.556;2022-11-20T07:31:44;-1.90;99.90
20246;DHT22;10281;54.406;18.556;2022-11-20T07:34:10;-1.90;99.90
20246;DHT22;10281;54.406;18.556;2022-11-20T07:36:37;-1.80;99.90
20246;DHT22;10281;54.406;18.556;2022-11-20T07:39:04;-1.70;99.90
20246;DHT22;10281;54.406;18.556;2022-11-20T07:41:31;-1.70;99.90
20246;DHT22;10281;54.406;18.556;2022-11-20T07:43:57;-1.60;99.90
20246;DHT22;10281;54.406;18.556;2022-11-20T07:46:24;-1.50;99.90
20246;DHT22;10281;54.406;18.556;2022-11-20T07:48:51;-1.50;99.90
20246;DHT22;10281;54.406;18.556;2022-11-20T07:51:17;-1.50;99.90
20246;DHT22;10281;54.406;18.556;2022-11-20T07:53:44;-1.40;99.90
20246;DHT22;10281;54.406;18.556;2022-11-20T07:56:10;-1.30;99.90
20246;DHT22;10281;54.406;18.556;2022-11-20T07:58:38;-1.20;99.90
20246;DHT22;10281;54.406;18.556;2022-11-20T08:01:06;-1.20;99.90
20246;DHT22;10281;54.406;18.556;2022-11-20T08:03:33;-1.20;99.90
20246;DHT22;10281;54.406;18.556;2022-11-20T08:06:00;-1.20;99.90
20246;DHT22;10281;54.406;18.556;2022-11-20T08:08:27;-1.10;99.90
20246;DHT22;10281;54.406;18.556;2022-11-20T08:10:56;-1.00;99.90
20246;DHT22;10281;54.406;18.556;2022-11-20T08:13:25;-1.10;99.90
20246;DHT22;10281;54.406;18.556;2022-11-20T08:15:57;-1.00;99.90
20246;DHT22;10281;54.406;18.556;2022-11-20T08:18:24;-1.00;99.90
20246;DHT22;10281;54.406;18.556;2022-11-20T08:20:50;-1.00;99.90
20246;DHT22;10281;54.406;18.556;2022-11-20T08:23:17;-1.00;99.90
20246;DHT22;10281;54.406;18.556;2022-11-20T08:25:49;-0.90;99.90
20246;DHT22;10281;54.406;18.556;2022-11-20T08:28:14;-0.80;99.90
20246;DHT22;10281;54.406;18.556;2022-11-20T08:30:41;-0.70;99.90
20246;DHT22;10281;54.406;18.556;2022-11-20T08:33:08;-0.60;99.90
20246;DHT22;10281;54.406;18.556;2022-11-20T08:35:36;-0.60;99.90
20246;DHT22;10281;54.406;18.556;2022-11-20T08:38:04;-0.60;99.90
20246;DHT22;10281;54.406;18.556;2022-11-20T08:40:31;-0.50;99.90
20246;DHT22;10281;54.406;18.556;2022-11-20T08:42:58;-0.40;99.90
20246;DHT22;10281;54.406;18.556;2022-11-20T08:45:24;-0.30;99.90
20246;DHT22;10281;54.406;18.556;2022-11-20T08:47:51;-0.30;99.90
20246;DHT22;10281;54.406;18.556;2022-11-20T08:50:18;-0.20;99.90
20246;DHT22;10281;54.406;18.556;2022-11-20T08:52:44;-0.10;99.90
20246;DHT22;10281;54.406;18.556;2022-11-20T08:55:11;-0.10;99.90
20246;DHT22;10281;54.406;18.556;2022-11-20T08:57:38;0.00;99.90
20246;DHT22;10281;54.406;18.556;2022-11-20T09:00:07;0.10;99.90
20246;DHT22;10281;54.406;18.556;2022-11-20T09:02:35;0.20;99.90
20246;DHT22;10281;54.406;18.556;2022-11-20T09:05:01;0.20;99.90
20246;DHT22;10281;54.406;18.556;2022-11-20T09:07:29;0.30;99.90
20246;DHT22;10281;54.406;18.556;2022-11-20T09:09:56;0.40;99.90
20246;DHT22;10281;54.406;18.556;2022-11-20T09:12:22;0.40;99.90
20246;DHT22;10281;54.406;18.556;2022-11-20T09:14:49;0.50;99.90
20246;DHT22;10281;54.406;18.556;2022-11-20T09:17:16;0.50;99.90
20246;DHT22;10281;54.406;18.556;2022-11-20T09:19:43;0.60;99.90
20246;DHT22;10281;54.406;18.556;2022-11-20T09:22:09;0.60;99.90
20246;DHT22;10281;54.406;18.556;2022-11-20T09:24:36;0.70;99.90
20246;DHT22;10281;54.406;18.556;2022-11-20T09:27:04;0.70;99.90
20246;DHT22;10281;54.406;18.556;2022-11-20T09:29:31;0.70;99.90
20246;DHT22;10281;54.406;18.556;2022-11-20T09:31:57;0.70;99.90
20246;DHT22;10281;54.406;18.556;2022-11-20T09:34:24;0.70;99.90
20246;DHT22;10281;54.406;18.556;2022-11-20T09:36:51;0.70;99.90
20246;DHT22;10281;54.406;18.556;2022-11-20T09:39:17;0.80;99.90
20246;DHT22;10281;54.406;18.556;2022-11-20T09:45:05;0.90;99.90
20246;DHT22;10281;54.406;18.556;2022-11-20T09:50:27;1.00;99.90
20246;DHT22;10281;54.406;18.556;2022-11-20T09:53:08;0.90;99.90
20246;DHT22;10281;54.406;18.556;2022-11-20T09:55:36;1.00;99.90
20246;DHT22;10281;54.406;18.556;2022-11-20T09:58:05;1.00;99.90
20246;DHT22;10281;54.406;18.556;2022-11-20T10:00:35;1.10;99.90
20246;DHT22;10281;54.406;18.556;2022-11-20T10:03:16;1.10;99.90
20246;DHT22;10281;54.406;18.556;2022-11-20T10:05:48;1.00;99.90
20246;DHT22;10281;54.406;18.556;2022-11-20T10:08:21;1.00;99.90
20246;DHT22;10281;54.406;18.556;2022-11-20T10:11:04;1.00;99.90
20246;DHT22;10281;54.406;18.556;2022-11-20T10:13:39;1.10;99.90
20246;DHT22;10281;54.406;18.556;2022-11-20T10:16:13;1.10;99.90
20246;DHT22;10281;54.406;18.556;2022-11-20T10:18:59;1.10;99.90
20246;DHT22;10281;54.406;18.556;2022-11-20T10:22:11;1.20;99.90
20246;DHT22;10281;54.406;18.556;2022-11-20T10:24:39;1.10;99.90
20246;DHT22;10281;54.406;18.556;2022-11-20T10:27:17;1.20;99.90
20246;DHT22;10281;54.406;18.556;2022-11-20T10:29:43;1.20;99.90
20246;DHT22;10281;54.406;18.556;2022-11-20T10:32:15;1.20;99.90
20246;DHT22;10281;54.406;18.556;2022-11-20T10:34:50;1.20;99.90
20246;DHT22;10281;54.406;18.556;2022-11-20T10:37:22;1.20;99.90
20246;DHT22;10281;54.406;18.556;2022-11-20T10:40:26;1.20;99.90
20246;DHT22;10281;54.406;18.556;2022-11-20T10:42:55;1.20;99.90
20246;DHT22;10281;54.406;18.556;2022-11-20T10:48:14;1.30;99.90
20246;DHT22;10281;54.406;18.556;2022-11-20T10:50:53;1.30;99.90
20246;DHT22;10281;54.406;18.556;2022-11-20T10:53:30;1.30;99.90
20246;DHT22;10281;54.406;18.556;2022-11-20T10:55:57;1.40;99.90
20246;DHT22;10281;54.406;18.556;2022-11-20T10:58:31;1.40;99.90
20246;DHT22;10281;54.406;18.556;2022-11-20T11:01:03;1.30;99.90
20246;DHT22;10281;54.406;18.556;2022-11-20T11:03:31;1.30;99.90
20246;DHT22;10281;54.406;18.556;2022-11-20T11:06:10;1.30;99.90
20246;DHT22;10281;54.406;18.556;2022-11-20T11:08:39;1.40;99.90
20246;DHT22;10281;54.406;18.556;2022-11-20T11:11:24;1.40;99.90
20246;DHT22;10281;54.406;18.556;2022-11-20T11:13:52;1.40;99.90
20246;DHT22;10281;54.406;18.556;2022-11-20T11:16:26;1.50;99.90
20246;DHT22;10281;54.406;18.556;2022-11-20T11:19:05;1.50;99.90
20246;DHT22;10281;54.406;18.556;2022-11-20T11:21:31;1.60;99.90
20246;DHT22;10281;54.406;18.556;2022-11-20T11:24:00;1.60;99.90
20246;DHT22;10281;54.406;18.556;2022-11-20T11:26:28;1.60;99.90
20246;DHT22;10281;54.406;18.556;2022-11-20T11:28:58;1.60;99.90
20246;DHT22;10281;54.406;18.556;2022-11-20T11:31:27;1.60;99.90
20246;DHT22;10281;54.406;18.556;2022-11-20T11:34:04;1.60;99.90
20246;DHT22;10281;54.406;18.556;2022-11-20T11:36:33;1.70;99.90
20246;DHT22;10281;54.406;18.556;2022-11-20T11:39:01;1.70;99.90
20246;DHT22;10281;54.406;18.556;2022-11-20T11:41:32;1.70;99.90
20246;DHT22;10281;54.406;18.556;2022-11-20T11:44:13;1.70;99.90
20246;DHT22;10281;54.406;18.556;2022-11-20T11:46:37;1.80;99.90
20246;DHT22;10281;54.406;18.556;2022-11-20T11:49:16;1.80;99.90
20246;DHT22;10281;54.406;18.556;2022-11-20T11:51:52;1.80;99.90
20246;DHT22;10281;54.406;18.556;2022-11-20T11:54:22;1.90;99.90
20246;DHT22;10281;54.406;18.556;2022-11-20T11:56:49;1.90;99.90
20246;DHT22;10281;54.406;18.556;2022-11-20T12:02:34;1.80;99.90
20246;DHT22;10281;54.406;18.556;2022-11-20T12:05:03;1.80;99.90
20246;DHT22;10281;54.406;18.556;2022-11-20T12:07:39;1.90;99.90
20246;DHT22;10281;54.406;18.556;2022-11-20T12:10:16;1.90;99.90
20246;DHT22;10281;54.406;18.556;2022-11-20T12:12:45;1.90;99.90
20246;DHT22;10281;54.406;18.556;2022-11-20T12:15:19;1.80;99.90
20246;DHT22;10281;54.406;18.556;2022-11-20T12:17:43;1.80;99.90
20246;DHT22;10281;54.406;18.556;2022-11-20T12:20:20;1.70;99.90
20246;DHT22;10281;54.406;18.556;2022-11-20T12:22:50;1.70;99.90
20246;DHT22;10281;54.406;18.556;2022-11-20T12:25:22;1.80;99.90
20246;DHT22;10281;54.406;18.556;2022-11-20T12:27:59;1.70;99.90
20246;DHT22;10281;54.406;18.556;2022-11-20T12:30:24;1.70;99.90
20246;DHT22;10281;54.406;18.556;2022-11-20T12:33:08;1.70;99.90
20246;DHT22;10281;54.406;18.556;2022-11-20T12:36:00;1.70;99.90
20246;DHT22;10281;54.406;18.556;2022-11-20T12:41:33;1.80;99.90
20246;DHT22;10281;54.406;18.556;2022-11-20T12:44:33;1.80;99.90
20246;DHT22;10281;54.406;18.556;2022-11-20T12:49:56;1.90;99.90
20246;DHT22;10281;54.406;18.556;2022-11-20T12:52:30;1.90;99.90
20246;DHT22;10281;54.406;18.556;2022-11-20T13:00:14;1.80;99.90
20246;DHT22;10281;54.406;18.556;2022-11-20T13:03:13;1.80;99.90
20246;DHT22;10281;54.406;18.556;2022-11-20T13:05:46;1.80;99.90
20246;DHT22;10281;54.406;18.556;2022-11-20T13:08:19;1.80;99.90
20246;DHT22;10281;54.406;18.556;2022-11-20T13:11:08;1.80;99.90
20246;DHT22;10281;54.406;18.556;2022-11-20T13:14:12;1.80;99.90
20246;DHT22;10281;54.406;18.556;2022-11-20T13:16:51;1.80;99.90
20246;DHT22;10281;54.406;18.556;2022-11-20T13:19:18;1.80;99.90
20246;DHT22;10281;54.406;18.556;2022-11-20T13:21:48;1.80;99.90
20246;DHT22;10281;54.406;18.556;2022-11-20T13:24:24;1.70;99.90
20246;DHT22;10281;54.406;18.556;2022-11-20T13:27:00;1.70;99.90
20246;DHT22;10281;54.406;18.556;2022-11-20T13:29:27;1.70;99.90
20246;DHT22;10281;54.406;18.556;2022-11-20T13:32:05;1.70;99.90
20246;DHT22;10281;54.406;18.556;2022-11-20T13:34:32;1.70;99.90
20246;DHT22;10281;54.406;18.556;2022-11-20T13:37:00;1.70;99.90
20246;DHT22;10281;54.406;18.556;2022-11-20T13:39:29;1.70;99.90
20246;DHT22;10281;54.406;18.556;2022-11-20T13:42:03;1.70;99.90
20246;DHT22;10281;54.406;18.556;2022-11-20T13:44:35;1.70;99.90
20246;DHT22;10281;54.406;18.556;2022-11-20T13:47:04;1.70;99.90
20246;DHT22;10281;54.406;18.556;2022-11-20T13:49:34;1.70;99.90
20246;DHT22;10281;54.406;18.556;2022-11-20T13:52:20;1.70;99.90
20246;DHT22;10281;54.406;18.556;2022-11-20T13:54:47;1.70;99.90
20246;DHT22;10281;54.406;18.556;2022-11-20T13:59:59;1.70;99.90
20246;DHT22;10281;54.406;18.556;2022-11-20T14:02:27;1.70;99.90
20246;DHT22;10281;54.406;18.556;2022-11-20T14:04:57;1.70;99.90
20246;DHT22;10281;54.406;18.556;2022-11-20T14:07:32;1.70;99.90
20246;DHT22;10281;54.406;18.556;2022-11-20T14:09:57;1.70;99.90
20246;DHT22;10281;54.406;18.556;2022-11-20T14:12:31;1.70;99.90
20246;DHT22;10281;54.406;18.556;2022-11-20T14:14:58;1.70;99.90
20246;DHT22;10281;54.406;18.556;2022-11-20T14:17:33;1.70;99.90
20246;DHT22;10281;54.406;18.556;2022-11-20T14:20:05;1.60;99.90
20246;DHT22;10281;54.406;18.556;2022-11-20T14:22:32;1.60;99.90
20246;DHT22;10281;54.406;18.556;2022-11-20T14:25:18;1.60;99.90
20246;DHT22;10281;54.406;18.556;2022-11-20T14:27:38;1.60;99.90
20246;DHT22;10281;54.406;18.556;2022-11-20T14:30:06;1.70;99.90
20246;DHT22;10281;54.406;18.556;2022-11-20T14:32:35;1.70;99.90
20246;DHT22;10281;54.406;18.556;2022-11-20T14:35:07;1.70;99.90
20246;DHT22;10281;54.406;18.556;2022-11-20T14:37:37;1.70;99.90
20246;DHT22;10281;54.406;18.556;2022-11-20T14:42:43;1.70;99.90
20246;DHT22;10281;54.406;18.556;2022-11-20T14:45:11;1.70;99.90
20246;DHT22;10281;54.406;18.556;2022-11-20T14:47:38;1.70;99.90
20246;DHT22;10281;54.406;18.556;2022-11-20T14:50:16;1.70;99.90
20246;DHT22;10281;54.406;18.556;2022-11-20T14:52:54;1.70;99.90
20246;DHT22;10281;54.406;18.556;2022-11-20T14:55:31;1.70;99.90
20246;DHT22;10281;54.406;18.556;2022-11-20T14:58:03;1.70;99.90
20246;DHT22;10281;54.406;18.556;2022-11-20T15:00:32;1.70;99.90
20246;DHT22;10281;54.406;18.556;2022-11-20T15:02:59;1.70;99.90
20246;DHT22;10281;54.406;18.556;2022-11-20T15:08:07;1.70;99.90
20246;DHT22;10281;54.406;18.556;2022-11-20T15:10:34;1.70;99.90
20246;DHT22;10281;54.406;18.556;2022-11-20T15:13:05;1.70;99.90
20246;DHT22;10281;54.406;18.556;2022-11-20T15:15:40;1.70;99.90
20246;DHT22;10281;54.406;18.556;2022-11-20T15:18:05;1.70;99.90
20246;DHT22;10281;54.406;18.556;2022-11-20T15:20:35;1.70;99.90
20246;DHT22;10281;54.406;18.556;2022-11-20T15:23:07;1.70;99.90
20246;DHT22;10281;54.406;18.556;2022-11-20T15:25:30;1.70;99.90
20246;DHT22;10281;54.406;18.556;2022-11-20T15:27:58;1.70;99.90
20246;DHT22;10281;54.406;18.556;2022-11-20T15:30:24;1.60;99.90
20246;DHT22;10281;54.406;18.556;2022-11-20T15:32:51;1.60;99.90
20246;DHT22;10281;54.406;18.556;2022-11-20T15:35:18;1.60;99.90
20246;DHT22;10281;54.406;18.556;2022-11-20T15:37:44;1.60;99.90
20246;DHT22;10281;54.406;18.556;2022-11-20T15:40:11;1.60;99.90
20246;DHT22;10281;54.406;18.556;2022-11-20T15:42:39;1.60;99.90
20246;DHT22;10281;54.406;18.556;2022-11-20T15:45:07;1.60;99.90
20246;DHT22;10281;54.406;18.556;2022-11-20T15:47:35;1.60;99.90
20246;DHT22;10281;54.406;18.556;2022-11-20T15:50:02;1.60;99.90
20246;DHT22;10281;54.406;18.556;2022-11-20T15:52:29;1.50;99.90
20246;DHT22;10281;54.406;18.556;2022-11-20T15:54:55;1.50;99.90
20246;DHT22;10281;54.406;18.556;2022-11-20T15:57:22;1.50;99.90
20246;DHT22;10281;54.406;18.556;2022-11-20T15:59:49;1.50;99.90
20246;DHT22;10281;54.406;18.556;2022-11-20T16:02:15;1.50;99.90
20246;DHT22;10281;54.406;18.556;2022-11-20T16:04:42;1.50;99.90
20246;DHT22;10281;54.406;18.556;2022-11-20T16:07:09;1.50;99.90
20246;DHT22;10281;54.406;18.556;2022-11-20T16:09:36;1.40;99.90
20246;DHT22;10281;54.406;18.556;2022-11-20T16:12:02;1.40;99.90
20246;DHT22;10281;54.406;18.556;2022-11-20T16:14:29;1.40;99.90
20246;DHT22;10281;54.406;18.556;2022-11-20T16:17:02;1.40;99.90
20246;DHT22;10281;54.406;18.556;2022-11-20T16:19:28;1.40;99.90